createdAt,value
2023-09-04T00:00:03.051Z,77.67
2023-09-04T00:00:35.008Z,67.33
2023-09-04T00:01:07.043Z,59.33
2023-09-04T00:01:40.000Z,56.00
2023-09-04T00:02:11.946Z,52.33
2023-09-04T00:02:43.957Z,53.67
2023-09-04T00:03:16.319Z,54.33
2023-09-04T00:03:48.310Z,57.00
2023-09-04T00:04:20.243Z,58.67
2023-09-04T00:04:53.269Z,59.00
2023-09-04T00:05:25.321Z,59.00
2023-09-04T00:05:57.243Z,56.67
2023-09-04T00:06:29.152Z,58.00
2023-09-04T00:07:01.132Z,58.00
2023-09-04T00:07:33.045Z,57.67
2023-09-04T00:08:05.295Z,55.33
2023-09-04T00:08:37.248Z,51.33
2023-09-04T00:09:09.190Z,50.67
2023-09-04T00:09:41.400Z,49.00
2023-09-04T00:10:13.668Z,48.00
2023-09-04T00:10:45.698Z,48.33
2023-09-04T00:11:17.628Z,48.00
2023-09-04T00:11:49.535Z,49.33
2023-09-04T00:12:21.500Z,50.00
2023-09-04T00:12:53.726Z,48.00
2023-09-04T00:13:25.637Z,46.33
2023-09-04T00:13:57.615Z,48.00
2023-09-04T00:14:29.524Z,49.67
2023-09-04T00:15:01.427Z,50.67
2023-09-04T00:15:33.359Z,51.33
2023-09-04T00:16:05.486Z,52.00
2023-09-04T00:16:38.100Z,52.67
2023-09-04T00:17:12.228Z,53.00
2023-09-04T00:17:44.216Z,53.67
2023-09-04T00:18:16.161Z,54.33
2023-09-04T00:18:48.152Z,55.33
2023-09-04T00:19:20.157Z,56.67
2023-09-04T00:19:52.147Z,58.33
2023-09-04T00:20:25.796Z,59.00
2023-09-04T00:20:57.717Z,60.00
2023-09-04T00:21:29.624Z,60.67
2023-09-04T00:22:01.544Z,61.67
2023-09-04T00:22:33.466Z,63.33
2023-09-04T00:23:05.378Z,64.33
2023-09-04T00:23:37.400Z,65.00
2023-09-04T00:24:09.357Z,66.33
2023-09-04T00:24:41.278Z,68.00
2023-09-04T00:25:13.226Z,69.00
2023-09-04T00:25:45.465Z,70.33
2023-09-04T00:26:17.412Z,72.67
2023-09-04T00:26:49.344Z,74.33
2023-09-04T00:27:21.278Z,75.00
2023-09-04T00:27:54.525Z,74.67
2023-09-04T00:28:27.206Z,74.00
2023-09-04T00:28:59.210Z,74.00
2023-09-04T00:29:31.121Z,74.00
2023-09-04T00:30:03.051Z,74.67
2023-09-04T00:30:34.977Z,75.67
2023-09-04T00:31:06.944Z,78.00
2023-09-04T00:31:38.885Z,79.33
2023-09-04T00:32:10.810Z,79.33
2023-09-04T00:32:42.769Z,79.00
2023-09-04T00:33:14.709Z,78.00
2023-09-04T00:33:46.635Z,78.00
2023-09-04T00:34:18.635Z,78.00
2023-09-04T00:34:50.554Z,78.67
2023-09-04T00:35:23.312Z,80.67
2023-09-04T00:35:55.219Z,81.00
2023-09-04T00:36:27.107Z,81.67
2023-09-04T00:36:59.657Z,82.00
2023-09-04T00:37:31.666Z,82.00
2023-09-04T00:38:03.641Z,81.67
2023-09-04T00:38:35.608Z,81.00
2023-09-04T00:39:07.814Z,81.00
2023-09-04T00:39:39.808Z,80.67
2023-09-04T00:40:12.007Z,80.00
2023-09-04T00:40:43.943Z,79.33
2023-09-04T00:41:17.144Z,79.00
2023-09-04T00:41:49.100Z,79.00
2023-09-04T00:42:21.016Z,79.00
2023-09-04T00:42:52.925Z,79.00
2023-09-04T00:43:24.841Z,79.00
2023-09-04T00:43:56.765Z,79.00
2023-09-04T00:44:28.806Z,78.00
2023-09-04T00:45:02.060Z,78.00
2023-09-04T00:45:36.037Z,78.00
2023-09-04T00:46:08.554Z,78.00
2023-09-04T00:46:43.413Z,78.00
2023-09-04T00:47:15.705Z,77.33
2023-09-04T00:47:48.054Z,77.00
2023-09-04T00:48:21.058Z,77.00
2023-09-04T00:48:53.510Z,76.33
2023-09-04T00:49:25.606Z,76.00
2023-09-04T00:49:58.477Z,76.00
2023-09-04T00:50:31.561Z,76.00
2023-09-04T00:51:03.840Z,76.33
2023-09-04T00:51:35.933Z,77.00
2023-09-04T00:52:08.074Z,77.00
2023-09-04T00:52:40.419Z,77.00
2023-09-04T00:53:12.669Z,77.00
2023-09-04T00:53:44.598Z,77.00
2023-09-04T00:54:17.746Z,77.67
2023-09-04T00:54:49.837Z,78.67
2023-09-04T00:55:21.998Z,80.33
2023-09-04T00:55:54.090Z,82.33
2023-09-04T00:56:26.331Z,85.00
2023-09-04T00:56:58.421Z,88.33
2023-09-04T00:57:30.358Z,95.00
2023-09-04T00:58:02.321Z,100.00
2023-09-04T00:58:37.866Z,102.00
2023-09-04T00:59:09.885Z,103.00
2023-09-04T00:59:41.895Z,107.33
2023-09-04T01:00:20.811Z,110.67
2023-09-04T01:00:52.873Z,113.33
2023-09-04T01:01:25.543Z,118.00
2023-09-04T01:02:00.744Z,118.00
2023-09-04T01:02:34.278Z,121.33
2023-09-04T01:03:06.392Z,125.00
2023-09-04T01:03:38.431Z,128.00
2023-09-04T01:04:10.400Z,127.67
2023-09-04T01:04:42.468Z,129.00
2023-09-04T01:05:14.383Z,129.67
2023-09-04T01:05:46.616Z,132.00
2023-09-04T01:06:18.527Z,134.67
2023-09-04T01:06:50.471Z,139.33
2023-09-04T01:07:22.413Z,139.33
2023-09-04T01:07:54.569Z,140.33
2023-09-04T01:08:26.916Z,141.67
2023-09-04T01:08:58.902Z,141.67
2023-09-04T01:09:31.187Z,144.00
2023-09-04T01:10:05.053Z,147.67
2023-09-04T01:11:05.680Z,143.67
2023-09-04T01:11:43.969Z,142.00
2023-09-04T01:12:19.001Z,143.33
2023-09-04T01:12:59.629Z,147.00
2023-09-04T01:13:39.802Z,150.33
2023-09-04T01:14:15.085Z,150.00
2023-09-04T01:14:48.527Z,150.33
2023-09-04T01:15:20.780Z,150.33
2023-09-04T01:15:53.205Z,153.33
2023-09-04T01:16:25.499Z,154.33
2023-09-04T01:16:58.359Z,154.67
2023-09-04T01:17:31.427Z,154.67
2023-09-04T01:18:03.928Z,156.33
2023-09-04T01:18:36.497Z,155.67
2023-09-04T01:19:11.769Z,157.67
2023-09-04T01:19:44.088Z,159.33
2023-09-04T01:20:22.728Z,161.00
2023-09-04T01:21:01.450Z,161.67
2023-09-04T01:21:39.287Z,164.67
2023-09-04T01:22:11.484Z,168.00
2023-09-04T01:22:43.484Z,172.67
2023-09-04T01:23:15.407Z,173.33
2023-09-04T01:23:47.317Z,176.33
2023-09-04T01:24:19.275Z,176.67
2023-09-04T01:24:51.791Z,175.67
2023-09-04T01:25:31.711Z,175.00
2023-09-04T01:26:26.759Z,173.33
2023-09-04T01:27:07.406Z,172.00
2023-09-04T01:27:42.644Z,172.00
2023-09-04T01:28:52.200Z,171.00
2023-09-04T01:30:01.960Z,169.67
2023-09-04T01:30:41.531Z,165.67
2023-09-04T01:31:24.001Z,155.00
2023-09-04T01:32:04.346Z,137.67
2023-09-04T01:32:41.210Z,127.67
2023-09-04T01:33:17.702Z,120.67
2023-09-04T01:33:58.324Z,117.00
2023-09-04T01:34:32.386Z,110.67
2023-09-04T01:35:11.368Z,106.67
2023-09-04T01:35:45.608Z,103.67
2023-09-04T01:36:18.729Z,100.33
2023-09-04T01:36:53.089Z,98.67
2023-09-04T01:37:25.939Z,98.33
2023-09-04T01:37:57.875Z,95.33
2023-09-04T01:38:30.030Z,94.67
2023-09-04T01:39:02.179Z,94.33
2023-09-04T01:39:34.690Z,97.33
2023-09-04T01:40:08.780Z,96.33
2023-09-04T01:40:40.773Z,89.67
2023-09-04T01:41:12.716Z,88.33
2023-09-04T01:41:44.692Z,89.67
2023-09-04T01:42:16.617Z,91.00
2023-09-04T01:42:48.522Z,91.33
2023-09-04T01:43:20.430Z,90.00
2023-09-04T01:43:52.366Z,89.33
2023-09-04T01:44:24.301Z,89.33
2023-09-04T01:44:56.213Z,89.67
2023-09-04T01:45:28.158Z,88.67
2023-09-04T01:46:00.331Z,89.33
2023-09-04T01:46:32.433Z,90.00
2023-09-04T01:47:04.630Z,90.33
2023-09-04T01:47:36.570Z,91.67
2023-09-04T01:48:08.836Z,92.00
2023-09-04T01:48:40.753Z,93.00
2023-09-04T01:49:12.703Z,94.00
2023-09-04T01:49:44.770Z,94.00
2023-09-04T01:50:16.730Z,94.00
2023-09-04T01:50:48.697Z,95.00
2023-09-04T01:51:20.609Z,95.00
2023-09-04T01:51:55.202Z,95.00
2023-09-04T01:52:27.111Z,96.00
2023-09-04T01:52:59.028Z,97.00
2023-09-04T01:53:30.940Z,100.00
2023-09-04T01:54:02.895Z,102.67
2023-09-04T01:54:34.798Z,103.00
2023-09-04T01:55:07.006Z,104.00
2023-09-04T01:55:38.923Z,103.33
2023-09-04T01:56:10.850Z,103.00
2023-09-04T01:56:42.754Z,101.00
2023-09-04T01:57:14.657Z,99.67
2023-09-04T01:57:46.586Z,97.67
2023-09-04T01:58:18.610Z,96.33
2023-09-04T01:58:50.518Z,96.00
2023-09-04T01:59:22.581Z,95.00
2023-09-04T01:59:54.488Z,95.00
2023-09-04T02:00:27.187Z,95.00
2023-09-04T02:00:59.094Z,95.00
2023-09-04T02:01:31.428Z,94.00
2023-09-04T02:02:03.374Z,90.33
2023-09-04T02:02:35.362Z,86.67
2023-09-04T02:03:07.417Z,82.00
2023-09-04T02:03:39.944Z,79.33
2023-09-04T02:04:11.984Z,79.67
2023-09-04T02:04:43.940Z,80.67
2023-09-04T02:05:15.882Z,82.33
2023-09-04T02:05:47.807Z,83.00
2023-09-04T02:06:19.719Z,83.00
2023-09-04T02:06:51.645Z,83.33
2023-09-04T02:07:23.546Z,84.00
2023-09-04T02:07:55.455Z,84.00
2023-09-04T02:08:27.367Z,83.67
2023-09-04T02:08:59.438Z,83.00
2023-09-04T02:09:31.391Z,82.00
2023-09-04T02:10:03.817Z,82.00
2023-09-04T02:10:36.838Z,82.00
2023-09-04T02:11:08.750Z,82.33
2023-09-04T02:11:40.768Z,83.00
2023-09-04T02:12:12.698Z,83.00
2023-09-04T02:12:44.606Z,83.67
2023-09-04T02:13:16.831Z,84.00
2023-09-04T02:13:49.114Z,85.33
2023-09-04T02:14:21.299Z,87.00
2023-09-04T02:14:53.590Z,88.00
2023-09-04T02:15:25.604Z,90.33
2023-09-04T02:15:57.570Z,94.00
2023-09-04T02:16:30.864Z,96.67
2023-09-04T02:17:02.935Z,97.00
2023-09-04T02:17:34.908Z,97.00
2023-09-04T02:18:07.156Z,97.00
2023-09-04T02:18:39.578Z,97.00
2023-09-04T02:19:11.486Z,96.33
2023-09-04T02:19:43.408Z,96.00
2023-09-04T02:20:15.348Z,95.67
2023-09-04T02:20:48.250Z,95.00
2023-09-04T02:21:20.156Z,94.67
2023-09-04T02:21:52.082Z,94.00
2023-09-04T02:22:24.076Z,93.67
2023-09-04T02:22:56.141Z,92.67
2023-09-04T02:23:28.037Z,91.00
2023-09-04T02:24:00.196Z,89.00
2023-09-04T02:24:33.547Z,88.00
2023-09-04T02:25:05.739Z,87.00
2023-09-04T02:25:37.650Z,85.33
2023-09-04T02:26:09.677Z,84.00
2023-09-04T02:26:41.569Z,84.00
2023-09-04T02:27:13.468Z,83.00
2023-09-04T02:27:45.377Z,80.00
2023-09-04T02:28:18.012Z,78.33
2023-09-04T02:28:49.903Z,76.00
2023-09-04T02:29:21.805Z,75.67
2023-09-04T02:29:53.734Z,73.00
2023-09-04T02:30:25.652Z,72.00
2023-09-04T02:30:57.696Z,72.00
2023-09-04T02:31:29.635Z,72.00
2023-09-04T02:32:01.571Z,70.67
2023-09-04T02:32:33.530Z,70.33
2023-09-04T02:33:05.494Z,70.67
2023-09-04T02:33:37.501Z,68.33
2023-09-04T02:34:09.403Z,68.00
2023-09-04T02:34:41.597Z,68.00
2023-09-04T02:35:14.017Z,67.33
2023-09-04T02:35:45.911Z,67.33
2023-09-04T02:36:17.839Z,68.00
2023-09-04T02:36:49.747Z,68.00
2023-09-04T02:37:21.660Z,68.33
2023-09-04T02:37:53.575Z,69.00
2023-09-04T02:38:26.164Z,69.00
2023-09-04T02:38:58.347Z,70.00
2023-09-04T02:39:30.972Z,70.00
2023-09-04T02:40:02.939Z,71.00
2023-09-04T02:40:34.924Z,71.33
2023-09-04T02:41:06.834Z,72.33
2023-09-04T02:41:38.775Z,73.00
2023-09-04T02:42:10.903Z,74.00
2023-09-04T02:42:42.838Z,75.33
2023-09-04T02:43:14.723Z,76.33
2023-09-04T02:43:46.634Z,77.67
2023-09-04T02:44:18.539Z,79.00
2023-09-04T02:44:50.444Z,80.67
2023-09-04T02:45:22.566Z,81.67
2023-09-04T02:45:54.515Z,82.00
2023-09-04T02:46:26.554Z,82.00
2023-09-04T02:46:58.517Z,82.33
2023-09-04T02:47:30.434Z,83.33
2023-09-04T02:48:02.396Z,84.00
2023-09-04T02:48:34.341Z,83.00
2023-09-04T02:49:06.330Z,83.00
2023-09-04T02:49:38.236Z,83.00
2023-09-04T02:50:10.432Z,82.33
2023-09-04T02:50:42.338Z,82.00
2023-09-04T02:51:14.241Z,82.00
2023-09-04T02:51:46.170Z,82.00
2023-09-04T02:52:18.268Z,82.00
2023-09-04T02:52:50.217Z,82.00
2023-09-04T02:53:22.119Z,82.00
2023-09-04T02:53:54.034Z,83.33
2023-09-04T02:54:26.418Z,84.00
2023-09-04T02:54:58.905Z,84.00
2023-09-04T02:55:30.844Z,84.00
2023-09-04T02:56:03.147Z,84.00
2023-09-04T02:56:35.065Z,84.00
2023-09-04T02:57:06.955Z,83.67
2023-09-04T02:57:38.898Z,83.00
2023-09-04T02:58:11.123Z,83.00
2023-09-04T02:58:43.256Z,81.67
2023-09-04T02:59:15.247Z,80.33
2023-09-04T02:59:47.172Z,80.00
2023-09-04T03:00:19.074Z,80.00
2023-09-04T03:00:51.362Z,79.33
2023-09-04T03:01:23.351Z,80.00
2023-09-04T03:01:55.282Z,80.00
2023-09-04T03:02:27.235Z,80.00
2023-09-04T03:02:59.293Z,80.00
2023-09-04T03:03:31.260Z,80.00
2023-09-04T03:04:03.335Z,80.67
2023-09-04T03:04:35.254Z,84.67
2023-09-04T03:05:07.498Z,90.67
2023-09-04T03:05:39.411Z,96.67
2023-09-04T03:06:12.283Z,99.00
2023-09-04T03:06:44.209Z,103.67
2023-09-04T03:07:16.118Z,108.33
2023-09-04T03:07:48.468Z,112.00
2023-09-04T03:08:20.449Z,111.67
2023-09-04T03:08:52.454Z,117.33
2023-09-04T03:09:25.424Z,119.67
2023-09-04T03:09:59.234Z,121.67
2023-09-04T03:10:34.189Z,122.67
2023-09-04T03:11:11.063Z,123.67
2023-09-04T03:11:43.092Z,129.00
2023-09-04T03:12:15.012Z,128.67
2023-09-04T03:12:46.937Z,128.00
2023-09-04T03:13:18.893Z,128.33
2023-09-04T03:13:50.804Z,129.67
2023-09-04T03:14:22.711Z,128.33
2023-09-04T03:15:04.297Z,125.67
2023-09-04T03:15:36.301Z,125.67
2023-09-04T03:16:08.490Z,126.33
2023-09-04T03:16:40.496Z,124.67
2023-09-04T03:17:12.474Z,124.00
2023-09-04T03:17:44.471Z,123.00
2023-09-04T03:18:16.417Z,123.00
2023-09-04T03:18:48.335Z,122.00
2023-09-04T03:19:20.247Z,122.00
2023-09-04T03:19:53.435Z,122.00
2023-09-04T03:20:25.346Z,122.00
2023-09-04T03:20:57.374Z,121.67
2023-09-04T03:21:30.103Z,121.00
2023-09-04T03:22:02.071Z,121.00
2023-09-04T03:22:33.993Z,121.00
2023-09-04T03:23:05.919Z,121.67
2023-09-04T03:23:37.826Z,122.33
2023-09-04T03:24:09.767Z,123.67
2023-09-04T03:24:41.730Z,124.00
2023-09-04T03:25:13.689Z,124.00
2023-09-04T03:25:45.666Z,123.67
2023-09-04T03:26:17.584Z,123.00
2023-09-04T03:26:49.483Z,121.67
2023-09-04T03:27:21.413Z,121.00
2023-09-04T03:27:53.330Z,120.00
2023-09-04T03:28:25.750Z,120.00
2023-09-04T03:28:57.960Z,120.00
2023-09-04T03:29:29.877Z,120.00
2023-09-04T03:30:02.238Z,120.00
2023-09-04T03:30:35.421Z,119.00
2023-09-04T03:31:13.765Z,118.67
2023-09-04T03:31:45.676Z,117.33
2023-09-04T03:32:17.615Z,116.00
2023-09-04T03:32:50.635Z,114.67
2023-09-04T03:33:22.768Z,113.33
2023-09-04T03:33:54.939Z,113.00
2023-09-04T03:34:26.906Z,112.33
2023-09-04T03:34:59.281Z,112.33
2023-09-04T03:35:31.211Z,112.00
2023-09-04T03:36:05.596Z,112.00
2023-09-04T03:36:37.520Z,112.00
2023-09-04T03:37:09.427Z,111.33
2023-09-04T03:37:41.476Z,111.00
2023-09-04T03:38:13.545Z,111.00
2023-09-04T03:38:45.620Z,111.00
2023-09-04T03:39:18.072Z,111.00
2023-09-04T03:39:50.007Z,111.67
2023-09-04T03:40:26.363Z,114.00
2023-09-04T03:40:58.310Z,115.33
2023-09-04T03:41:32.077Z,117.67
2023-09-04T03:42:05.129Z,119.00
2023-09-04T03:42:37.063Z,119.67
2023-09-04T03:43:09.043Z,120.33
2023-09-04T03:43:41.043Z,121.00
2023-09-04T03:44:13.056Z,121.00
2023-09-04T03:44:44.985Z,121.00
2023-09-04T03:45:17.203Z,121.00
2023-09-04T03:45:49.172Z,121.00
2023-09-04T03:46:21.118Z,120.33
2023-09-04T03:46:53.094Z,120.00
2023-09-04T03:47:25.004Z,120.00
2023-09-04T03:47:57.513Z,120.00
2023-09-04T03:48:29.703Z,120.00
2023-09-04T03:49:01.923Z,120.00
2023-09-04T03:49:33.883Z,120.00
2023-09-04T03:50:06.137Z,120.00
2023-09-04T03:50:38.896Z,121.00
2023-09-04T03:51:11.242Z,122.00
2023-09-04T03:51:43.151Z,122.67
2023-09-04T03:52:15.124Z,123.00
2023-09-04T03:52:47.290Z,123.00
2023-09-04T03:53:19.202Z,123.33
2023-09-04T03:53:51.119Z,123.00
2023-09-04T03:54:24.120Z,123.00
2023-09-04T03:54:56.278Z,121.33
2023-09-04T03:55:28.211Z,119.67
2023-09-04T03:56:04.829Z,118.67
2023-09-04T03:56:36.859Z,116.00
2023-09-04T03:57:08.780Z,115.00
2023-09-04T03:57:49.041Z,115.00
2023-09-04T03:58:21.009Z,115.00
2023-09-04T03:58:52.996Z,115.00
2023-09-04T03:59:24.926Z,116.00
2023-09-04T03:59:59.982Z,116.33
2023-09-04T04:00:32.438Z,119.00
2023-09-04T04:01:05.530Z,120.67
2023-09-04T04:01:37.541Z,123.00
2023-09-04T04:02:09.438Z,125.33
2023-09-04T04:02:42.167Z,130.00
2023-09-04T04:03:15.860Z,134.00
2023-09-04T04:03:54.273Z,135.67
2023-09-04T04:04:26.245Z,141.33
2023-09-04T04:04:58.151Z,147.67
2023-09-04T04:05:30.102Z,152.00
2023-09-04T04:06:11.549Z,154.33
2023-09-04T04:06:43.480Z,157.33
2023-09-04T04:07:15.493Z,158.33
2023-09-04T04:07:49.171Z,157.67
2023-09-04T04:08:21.201Z,156.00
2023-09-04T04:08:55.734Z,153.00
2023-09-04T04:09:28.241Z,152.67
2023-09-04T04:10:00.235Z,154.67
2023-09-04T04:10:32.153Z,152.67
2023-09-04T04:11:05.437Z,154.67
2023-09-04T04:11:37.349Z,156.00
2023-09-04T04:12:09.651Z,155.00
2023-09-04T04:12:41.706Z,154.33
2023-09-04T04:13:13.792Z,154.67
2023-09-04T04:13:45.775Z,155.00
2023-09-04T04:14:17.816Z,154.33
2023-09-04T04:14:49.738Z,153.33
2023-09-04T04:15:21.869Z,152.67
2023-09-04T04:15:58.599Z,152.00
2023-09-04T04:16:36.445Z,151.67
2023-09-04T04:17:09.553Z,150.67
2023-09-04T04:17:41.621Z,150.00
2023-09-04T04:18:13.592Z,150.00
2023-09-04T04:18:45.524Z,150.00
2023-09-04T04:19:17.494Z,152.00
2023-09-04T04:19:50.343Z,155.00
2023-09-04T04:20:22.254Z,156.00
2023-09-04T04:20:57.890Z,156.00
2023-09-04T04:21:29.836Z,154.67
2023-09-04T04:22:01.744Z,149.00
2023-09-04T04:22:33.766Z,142.33
2023-09-04T04:23:05.680Z,140.33
2023-09-04T04:23:37.612Z,140.67
2023-09-04T04:24:09.574Z,141.00
2023-09-04T04:24:41.474Z,142.00
2023-09-04T04:25:13.407Z,142.67
2023-09-04T04:25:45.348Z,143.00
2023-09-04T04:26:17.269Z,143.33
2023-09-04T04:26:49.560Z,144.33
2023-09-04T04:27:22.681Z,146.33
2023-09-04T04:27:54.602Z,148.33
2023-09-04T04:28:27.094Z,152.00
2023-09-04T04:28:59.119Z,156.00
2023-09-04T04:29:31.076Z,160.33
2023-09-04T04:30:03.812Z,161.00
2023-09-04T04:30:36.694Z,162.33
2023-09-04T04:31:08.614Z,167.33
2023-09-04T04:31:40.617Z,174.33
2023-09-04T04:32:12.598Z,175.33
2023-09-04T04:32:44.567Z,173.00
2023-09-04T04:33:16.504Z,174.00
2023-09-04T04:33:48.430Z,177.00
2023-09-04T04:34:20.716Z,179.33
2023-09-04T04:34:52.697Z,177.00
2023-09-04T04:35:24.773Z,174.67
2023-09-04T04:35:56.687Z,174.33
2023-09-04T04:36:28.602Z,174.33
2023-09-04T04:37:01.331Z,174.00
2023-09-04T04:37:33.280Z,173.33
2023-09-04T04:38:05.204Z,173.00
2023-09-04T04:38:37.179Z,172.00
2023-09-04T04:39:09.082Z,172.00
2023-09-04T04:39:41.004Z,171.67
2023-09-04T04:40:13.114Z,171.00
2023-09-04T04:40:45.000Z,170.00
2023-09-04T04:41:19.613Z,169.67
2023-09-04T04:41:51.546Z,169.00
2023-09-04T04:42:26.531Z,168.00
2023-09-04T04:42:58.512Z,167.00
2023-09-04T04:43:30.431Z,164.67
2023-09-04T04:44:02.348Z,163.33
2023-09-04T04:44:34.254Z,163.00
2023-09-04T04:45:06.884Z,163.00
2023-09-04T04:45:38.825Z,160.67
2023-09-04T04:46:13.876Z,158.67
2023-09-04T04:46:48.922Z,157.33
2023-09-04T04:47:20.845Z,154.67
2023-09-04T04:47:52.924Z,151.00
2023-09-04T04:48:25.064Z,148.33
2023-09-04T04:48:57.361Z,148.33
2023-09-04T04:49:29.274Z,149.00
2023-09-04T04:50:01.194Z,149.00
2023-09-04T04:50:33.175Z,150.00
2023-09-04T04:51:05.129Z,152.33
2023-09-04T04:51:37.105Z,157.67
2023-09-04T04:52:09.059Z,165.00
2023-09-04T04:52:41.052Z,169.67
2023-09-04T04:53:12.942Z,171.33
2023-09-04T04:53:44.853Z,170.00
2023-09-04T04:54:17.348Z,169.33
2023-09-04T04:54:49.260Z,169.00
2023-09-04T04:55:21.168Z,168.00
2023-09-04T04:55:53.087Z,167.67
2023-09-04T04:56:25.035Z,167.00
2023-09-04T04:56:57.056Z,167.00
2023-09-04T04:57:29.158Z,166.00
2023-09-04T04:58:01.124Z,166.00
2023-09-04T04:58:33.015Z,166.00
2023-09-04T04:59:05.042Z,165.67
2023-09-04T04:59:38.122Z,163.33
2023-09-04T05:00:10.402Z,154.67
2023-09-04T05:00:42.307Z,151.00
2023-09-04T05:01:14.269Z,151.67
2023-09-04T05:01:46.814Z,152.33
2023-09-04T05:02:18.859Z,153.00
2023-09-04T05:02:51.008Z,153.00
2023-09-04T05:03:23.135Z,154.00
2023-09-04T05:03:55.062Z,154.00
2023-09-04T05:04:27.036Z,154.00
2023-09-04T05:04:58.985Z,154.33
2023-09-04T05:05:30.900Z,155.00
2023-09-04T05:06:03.292Z,155.67
2023-09-04T05:06:35.228Z,156.33
2023-09-04T05:07:07.140Z,156.67
2023-09-04T05:07:39.132Z,156.00
2023-09-04T05:08:11.115Z,154.33
2023-09-04T05:08:43.023Z,154.00
2023-09-04T05:09:14.918Z,148.00
2023-09-04T05:09:46.833Z,137.00
2023-09-04T05:10:18.785Z,136.00
2023-09-04T05:11:03.910Z,136.67
2023-09-04T05:11:36.780Z,134.67
2023-09-04T05:12:08.837Z,132.33
2023-09-04T05:12:40.772Z,131.33
2023-09-04T05:13:12.795Z,129.00
2023-09-04T05:13:44.713Z,125.33
2023-09-04T05:14:16.624Z,125.00
2023-09-04T05:14:48.551Z,125.67
2023-09-04T05:15:20.493Z,125.33
2023-09-04T05:15:52.459Z,125.33
2023-09-04T05:16:24.390Z,123.67
2023-09-04T05:16:56.745Z,113.00
2023-09-04T05:17:28.737Z,109.00
2023-09-04T05:18:00.832Z,114.00
2023-09-04T05:18:34.058Z,116.67
2023-09-04T05:19:06.520Z,119.00
2023-09-04T05:19:38.441Z,118.67
2023-09-04T05:20:11.167Z,116.67
2023-09-04T05:20:43.094Z,115.67
2023-09-04T05:21:14.990Z,117.33
2023-09-04T05:21:56.240Z,123.67
2023-09-04T05:22:29.418Z,128.00
2023-09-04T05:23:02.841Z,127.67
2023-09-04T05:23:35.610Z,119.33
2023-09-04T05:24:08.118Z,113.33
2023-09-04T05:24:40.039Z,115.00
2023-09-04T05:25:12.786Z,121.00
2023-09-04T05:25:54.918Z,141.67
2023-09-04T05:26:26.873Z,149.67
2023-09-04T05:26:58.806Z,146.00
2023-09-04T05:27:30.754Z,143.67
2023-09-04T05:28:02.732Z,143.00
2023-09-04T05:28:34.664Z,143.67
2023-09-04T05:29:06.590Z,144.67
2023-09-04T05:29:38.709Z,143.33
2023-09-04T05:30:10.806Z,143.33
2023-09-04T05:30:42.732Z,143.67
2023-09-04T05:31:14.672Z,143.00
2023-09-04T05:31:46.616Z,145.00
2023-09-04T05:32:18.544Z,146.33
2023-09-04T05:32:54.295Z,148.33
2023-09-04T05:33:26.913Z,160.00
2023-09-04T05:33:58.832Z,185.00
2023-09-04T05:34:30.753Z,224.33
2023-09-04T05:35:02.951Z,236.00
2023-09-04T05:35:34.889Z,239.67
2023-09-04T05:36:09.323Z,241.67
2023-09-04T05:36:41.284Z,247.00
2023-09-04T05:37:13.564Z,247.00
2023-09-04T05:37:45.711Z,240.33
2023-09-04T05:38:17.656Z,222.00
2023-09-04T05:38:49.976Z,201.00
2023-09-04T05:39:21.923Z,194.67
2023-09-04T05:39:55.189Z,182.00
2023-09-04T05:40:27.178Z,168.00
2023-09-04T05:41:01.862Z,163.33
2023-09-04T05:41:33.772Z,165.00
2023-09-04T05:42:06.178Z,166.67
2023-09-04T05:42:38.104Z,167.67
2023-09-04T05:43:10.084Z,168.00
2023-09-04T05:43:42.063Z,170.00
2023-09-04T05:44:13.992Z,174.67
2023-09-04T05:44:45.901Z,176.00
2023-09-04T05:45:17.835Z,176.00
2023-09-04T05:45:51.113Z,176.00
2023-09-04T05:46:23.051Z,175.67
2023-09-04T05:46:55.082Z,175.00
2023-09-04T05:47:27.118Z,168.67
2023-09-04T05:47:59.397Z,155.67
2023-09-04T05:48:32.647Z,148.00
2023-09-04T05:49:04.726Z,149.00
2023-09-04T05:49:36.638Z,150.00
2023-09-04T05:50:08.907Z,152.33
2023-09-04T05:50:40.814Z,145.33
2023-09-04T05:51:13.033Z,146.00
2023-09-04T05:51:44.932Z,148.67
2023-09-04T05:52:17.968Z,141.67
2023-09-04T05:52:49.877Z,130.33
2023-09-04T05:53:21.826Z,122.67
2023-09-04T05:53:54.027Z,118.33
2023-09-04T05:54:25.964Z,118.33
2023-09-04T05:54:57.941Z,116.00
2023-09-04T05:55:29.932Z,119.33
2023-09-04T05:56:11.012Z,121.33
2023-09-04T05:56:42.975Z,122.67
2023-09-04T05:57:14.880Z,122.33
2023-09-04T05:57:46.789Z,126.33
2023-09-04T05:58:19.009Z,130.00
2023-09-04T05:58:52.348Z,135.67
2023-09-04T05:59:24.699Z,147.33
2023-09-04T05:59:56.721Z,146.67
2023-09-04T06:00:28.994Z,138.67
2023-09-04T06:01:01.228Z,129.33
2023-09-04T06:01:33.237Z,124.67
2023-09-04T06:02:05.275Z,128.00
2023-09-04T06:02:37.214Z,130.00
2023-09-04T06:03:10.791Z,134.00
2023-09-04T06:03:44.039Z,135.00
2023-09-04T06:04:15.976Z,133.67
2023-09-04T06:04:48.065Z,131.33
2023-09-04T06:05:19.974Z,128.33
2023-09-04T06:05:51.881Z,128.00
2023-09-04T06:06:23.813Z,123.00
2023-09-04T06:06:55.734Z,110.67
2023-09-04T06:07:27.668Z,101.67
2023-09-04T06:07:59.583Z,102.33
2023-09-04T06:08:32.102Z,106.33
2023-09-04T06:09:04.279Z,108.67
2023-09-04T06:09:36.197Z,111.00
2023-09-04T06:10:08.336Z,113.00
2023-09-04T06:10:40.282Z,111.67
2023-09-04T06:11:13.432Z,112.33
2023-09-04T06:11:45.539Z,113.33
2023-09-04T06:12:17.483Z,114.00
2023-09-04T06:12:49.499Z,115.00
2023-09-04T06:13:21.470Z,114.33
2023-09-04T06:13:53.380Z,107.33
2023-09-04T06:14:25.692Z,95.67
2023-09-04T06:14:57.611Z,89.33
2023-09-04T06:15:29.529Z,89.67
2023-09-04T06:16:02.880Z,93.67
2023-09-04T06:16:35.374Z,99.67
2023-09-04T06:17:07.473Z,102.00
2023-09-04T06:17:39.405Z,103.00
2023-09-04T06:18:11.318Z,102.67
2023-09-04T06:18:43.297Z,97.00
2023-09-04T06:19:15.214Z,93.33
2023-09-04T06:19:47.120Z,91.33
2023-09-04T06:20:19.031Z,89.00
2023-09-04T06:20:51.826Z,83.67
2023-09-04T06:21:23.740Z,80.00
2023-09-04T06:21:56.157Z,77.67
2023-09-04T06:22:28.104Z,72.00
2023-09-04T06:23:00.058Z,63.00
2023-09-04T06:23:33.484Z,52.33
2023-09-04T06:24:05.703Z,46.67
2023-09-04T06:24:37.594Z,45.00
2023-09-04T06:25:09.611Z,43.67
2023-09-04T06:25:44.154Z,42.00
2023-09-04T06:26:16.082Z,41.00
2023-09-04T06:26:47.983Z,39.00
2023-09-04T06:27:19.891Z,40.33
2023-09-04T06:27:51.982Z,43.33
2023-09-04T06:28:25.017Z,42.67
2023-09-04T06:28:57.230Z,43.00
2023-09-04T06:29:30.331Z,43.67
2023-09-04T06:30:02.240Z,46.33
2023-09-04T06:30:34.211Z,50.67
2023-09-04T06:31:06.292Z,53.33
2023-09-04T06:31:38.408Z,54.67
2023-09-04T06:32:12.139Z,55.67
2023-09-04T06:32:44.104Z,56.00
2023-09-04T06:33:16.056Z,56.00
2023-09-04T06:33:48.906Z,56.00
2023-09-04T06:34:20.825Z,57.00
2023-09-04T06:34:52.741Z,57.67
2023-09-04T06:35:24.713Z,58.33
2023-09-04T06:35:56.642Z,59.33
2023-09-04T06:36:28.636Z,60.67
2023-09-04T06:37:00.579Z,63.00
2023-09-04T06:37:32.491Z,65.33
2023-09-04T06:38:04.810Z,66.00
2023-09-04T06:38:36.863Z,67.33
2023-09-04T06:39:09.070Z,67.33
2023-09-04T06:39:41.030Z,67.00
2023-09-04T06:40:13.191Z,67.00
2023-09-04T06:40:45.109Z,67.00
2023-09-04T06:41:17.354Z,70.00
2023-09-04T06:41:50.314Z,73.00
2023-09-04T06:42:22.357Z,81.00
2023-09-04T06:42:54.552Z,90.67
2023-09-04T06:43:31.102Z,88.33
2023-09-04T06:44:04.036Z,86.00
2023-09-04T06:44:35.969Z,83.33
2023-09-04T06:45:08.309Z,82.33
2023-09-04T06:45:40.366Z,81.67
2023-09-04T06:46:12.310Z,88.67
2023-09-04T06:46:44.277Z,102.67
2023-09-04T06:47:16.259Z,102.33
2023-09-04T06:47:49.127Z,96.33
2023-09-04T06:48:21.410Z,92.00
2023-09-04T06:48:53.397Z,90.33
2023-09-04T06:49:25.323Z,90.67
2023-09-04T06:49:57.227Z,90.67
2023-09-04T06:50:29.303Z,90.00
2023-09-04T06:51:01.569Z,89.33
2023-09-04T06:51:33.623Z,88.33
2023-09-04T06:52:05.636Z,86.67
2023-09-04T06:52:37.556Z,84.33
2023-09-04T06:53:09.518Z,83.00
2023-09-04T06:53:41.417Z,82.00